Time;durP1;ratioP1;P1;durP2;ratioP2;P2;SDS_P1;SDS_P2;PMS_P1;PMS_P2;Temp;Humidity;BMP_temperature;BMP_pressure;BME280_temperature;BME280_humidity;BME280_pressure;Samples;Min_cycle;Max_cycle;Signal;HPM_P1;HPM_P2
2022/01/13 00:02:00;;;;;;;121.00;29.77;;;;;;;2.18;100.00;104186.31;5276258;28;20027;-73
2022/01/13 00:04:31;;;;;;;115.45;29.25;;;;;;;2.17;100.00;104189.88;5277195;28;20156;-72
2022/01/13 00:07:02;;;;;;;110.10;28.58;;;;;;;2.15;100.00;104189.00;5280116;28;20473;-72
2022/01/13 00:09:33;;;;;;;114.28;24.95;;;;;;;2.17;100.00;104192.53;5283816;27;20118;-73
2022/01/13 00:12:05;;;;;;;108.80;26.23;;;;;;;2.15;100.00;104193.44;5283606;28;20019;-73
2022/01/13 00:25:32;;;;;;;112.40;25.83;;;;;;;2.18;100.00;104206.63;5269395;28;20036;-73
2022/01/13 00:28:12;;;;;;;147.30;32.42;;;;;;;2.23;100.00;104215.38;5270956;28;20055;-72
2022/01/13 00:30:44;;;;;;;158.30;40.80;;;;;;;2.24;100.00;104219.75;5269906;28;20023;-72
2022/01/13 00:33:17;;;;;;;134.75;28.17;;;;;;;2.24;100.00;104215.31;5284033;28;20411;-72
2022/01/13 00:35:48;;;;;;;131.05;26.65;;;;;;;2.24;100.00;104217.97;5283201;28;20027;-72
2022/01/13 00:38:18;;;;;;;206.88;55.50;;;;;;;2.26;100.00;104216.19;5283663;28;20020;-72
2022/01/13 00:40:49;;;;;;;134.77;39.28;;;;;;;2.27;100.00;104209.97;5277798;28;20016;-73
2022/01/13 00:43:20;;;;;;;169.13;51.92;;;;;;;2.29;100.00;104210.81;5263549;28;20527;-73
2022/01/13 00:45:50;;;;;;;120.40;27.23;;;;;;;2.29;100.00;104205.50;5275324;28;20043;-74
2022/01/13 00:48:21;;;;;;;110.88;28.13;;;;;;;2.27;100.00;104198.50;5276656;28;20027;-74
2022/01/13 00:50:51;;;;;;;138.45;27.48;;;;;;;2.25;100.00;104195.00;5283384;28;20038;-73
2022/01/13 00:53:22;;;;;;;112.93;26.48;;;;;;;2.24;100.00;104202.06;5283598;28;20498;-73
2022/01/13 00:58:41;;;;;;;134.20;29.23;;;;;;;2.19;100.00;104209.25;5279608;28;20032;-73
2022/01/13 01:01:12;;;;;;;128.85;28.17;;;;;;;2.16;100.00;104213.72;5279617;28;20027;-72
2022/01/13 01:03:42;;;;;;;127.72;29.55;;;;;;;2.17;100.00;104204.91;5266454;28;20020;-73
2022/01/13 01:06:13;;;;;;;122.57;30.40;;;;;;;2.22;100.00;104206.53;5282162;28;20716;-73
2022/01/13 01:08:44;;;;;;;149.07;40.72;;;;;;;2.24;100.00;104202.06;5283857;28;20031;-74
2022/01/13 01:11:14;;;;;;;148.57;34.15;;;;;;;2.17;100.00;104207.53;5283149;28;20392;-73
2022/01/13 01:13:48;;;;;;;130.23;31.42;;;;;;;2.19;100.00;104203.94;5266171;28;20397;-73
2022/01/13 01:16:18;;;;;;;162.65;45.63;;;;;;;2.22;100.00;104198.59;5265701;28;20023;-73
2022/01/13 01:18:55;;;;;;;122.50;30.00;;;;;;;2.23;100.00;104191.53;5265851;28;20020;-72
2022/01/13 01:29:24;;;;;;;135.13;31.40;;;;;;;2.13;100.00;104180.22;5281557;28;20474;-75
2022/01/13 01:31:56;;;;;;;130.02;29.98;;;;;;;2.19;100.00;104176.59;5279476;28;20019;-74
2022/01/13 01:37:19;;;;;;;158.82;38.17;;;;;;;2.27;100.00;104179.97;5282449;27;20111;-73
2022/01/13 01:39:50;;;;;;;156.73;32.10;;;;;;;2.30;100.00;104186.06;5277547;28;20606;-73
2022/01/13 01:42:22;;;;;;;140.90;30.13;;;;;;;2.28;100.00;104184.34;5272845;28;20046;-73
2022/01/13 01:44:56;;;;;;;123.05;30.17;;;;;;;2.21;100.00;104177.41;5286094;28;20591;-72
2022/01/13 01:47:29;;;;;;;129.98;28.80;;;;;;;2.26;100.00;104184.41;5273284;28;20015;-72
2022/01/13 01:50:10;;;;;;;136.38;32.28;;;;;;;2.29;100.00;104179.00;5272477;28;20062;-72
2022/01/13 01:52:41;;;;;;;118.50;28.90;;;;;;;2.30;100.00;104191.34;5286668;28;20031;-72
2022/01/13 01:55:12;;;;;;;130.88;29.23;;;;;;;2.33;100.00;104193.06;5281012;28;20076;-72
2022/01/13 01:57:45;;;;;;;134.98;31.77;;;;;;;2.32;100.00;104191.34;5265438;28;20412;-72
2022/01/13 02:00:18;;;;;;;123.60;29.90;;;;;;;2.29;100.00;104192.25;5281635;28;20528;-72
2022/01/13 02:02:49;;;;;;;147.95;31.15;;;;;;;2.31;100.00;104190.47;5272205;28;20020;-72
2022/01/13 02:05:20;;;;;;;306.35;87.20;;;;;;;2.34;100.00;104185.09;5265484;28;20031;-72
2022/01/13 02:07:50;;;;;;;149.63;37.83;;;;;;;2.36;100.00;104185.09;5277403;28;20028;-72
2022/01/13 02:10:21;;;;;;;132.65;30.27;;;;;;;2.28;100.00;104182.56;5276982;28;20032;-73
2022/01/13 02:13:18;;;;;;;121.07;29.10;;;;;;;2.31;100.00;104189.59;5270542;28;20051;-72
2022/01/13 02:16:06;;;;;;;159.65;30.13;;;;;;;2.21;100.00;104186.25;5283682;28;20085;-72
2022/01/13 02:18:37;;;;;;;141.43;30.52;;;;;;;2.21;100.00;104188.91;5265437;28;20443;-71
2022/01/13 02:21:10;;;;;;;140.68;30.67;;;;;;;2.19;100.00;104192.47;5279109;28;20028;-72
2022/01/13 02:23:41;;;;;;;137.50;29.38;;;;;;;2.18;100.00;104186.31;5277671;28;20027;-72
2022/01/13 02:26:12;;;;;;;146.50;31.10;;;;;;;2.20;100.00;104187.13;5280227;28;20020;-72
2022/01/13 02:28:44;;;;;;;135.73;28.77;;;;;;;2.21;100.00;104180.97;5278560;28;20019;-72
2022/01/13 02:31:14;;;;;;;145.98;32.15;;;;;;;2.23;100.00;104179.16;5278509;28;20388;-72
2022/01/13 02:33:45;;;;;;;140.10;30.42;;;;;;;2.23;100.00;104179.16;5265211;28;20024;-72
2022/01/13 02:36:18;;;;;;;156.55;34.72;;;;;;;2.20;100.00;104178.31;5264955;28;20070;-72
2022/01/13 02:38:53;;;;;;;142.30;31.10;;;;;;;2.15;100.00;104186.34;5264524;28;20020;-72
2022/01/13 02:41:24;;;;;;;160.45;30.90;;;;;;;2.16;100.00;104185.47;5276479;28;20059;-72
2022/01/13 02:43:58;;;;;;;132.45;29.23;;;;;;;2.09;100.00;104175.88;5286187;28;20054;-72
2022/01/13 02:46:55;;;;;;;146.80;30.33;;;;;;;2.08;100.00;104179.44;5285614;28;20031;-72
2022/01/13 02:49:28;;;;;;;137.25;29.95;;;;;;;2.09;100.00;104175.88;5285582;28;20377;-72
2022/01/13 02:52:01;;;;;;;139.70;30.35;;;;;;;2.11;100.00;104182.06;5266629;28;20026;-72
2022/01/13 02:54:32;;;;;;;136.25;28.60;;;;;;;2.14;100.00;104176.66;5264626;28;20447;-72
2022/01/13 02:57:03;;;;;;;141.85;32.63;;;;;;;2.11;100.00;104179.41;5264506;28;20016;-72
2022/01/13 02:59:34;;;;;;;130.02;28.63;;;;;;;2.11;100.00;104184.69;5265021;28;20163;-72
2022/01/13 03:02:04;;;;;;;151.10;31.15;;;;;;;2.02;100.00;104180.44;5285606;28;20554;-72
2022/01/13 03:04:35;;;;;;;138.80;29.13;;;;;;;2.10;100.00;104184.72;5286092;28;20055;-71
2022/01/13 03:07:08;;;;;;;133.82;30.95;;;;;;;2.13;100.00;104177.59;5282244;28;20133;-72
2022/01/13 03:09:41;;;;;;;147.68;31.88;;;;;;;2.13;100.00;104174.94;5285112;28;20027;-73
2022/01/13 03:12:12;;;;;;;168.23;35.15;;;;;;;2.07;100.00;104164.47;5285084;28;20323;-72
2022/01/13 03:14:46;;;;;;;163.02;32.10;;;;;;;2.01;100.00;104167.25;5279892;28;20417;-72
2022/01/13 03:17:17;;;;;;;169.80;32.60;;;;;;;2.02;100.00;104167.19;5276938;28;20016;-72
2022/01/13 03:19:48;;;;;;;177.90;32.78;;;;;;;2.01;100.00;104161.94;5265223;28;20023;-72
2022/01/13 03:22:18;;;;;;;170.23;30.80;;;;;;;2.04;100.00;104159.22;5277602;28;20020;-72
2022/01/13 03:24:49;;;;;;;143.68;32.03;;;;;;;1.98;100.00;104159.34;5271499;28;20027;-73
2022/01/13 03:27:22;;;;;;;183.55;32.13;;;;;;;1.98;100.00;104165.50;5271457;28;20047;-73
2022/01/13 03:29:53;;;;;;;184.88;34.33;;;;;;;1.96;100.00;104164.69;5276234;28;20485;-73
2022/01/13 03:32:23;;;;;;;152.70;33.58;;;;;;;1.98;100.00;104162.88;5263880;28;20103;-73
2022/01/13 03:34:54;;;;;;;172.90;33.10;;;;;;;2.02;100.00;104158.38;5263823;28;20134;-72
2022/01/13 03:37:25;;;;;;;171.02;32.03;;;;;;;1.98;100.00;104159.34;5277284;28;20048;-73
2022/01/13 03:39:56;;;;;;;156.88;33.90;;;;;;;2.00;100.00;104163.69;5275419;28;20024;-73
2022/01/13 03:42:27;;;;;;;196.95;36.03;;;;;;;2.03;100.00;104165.44;5272455;28;20106;-72
2022/01/13 03:44:58;;;;;;;174.68;35.92;;;;;;;1.92;100.00;104170.06;5284694;28;20451;-71
2022/01/13 03:47:29;;;;;;;177.00;33.15;;;;;;;1.93;100.00;104167.38;5277731;28;20035;-72
2022/01/13 03:49:59;;;;;;;178.35;35.03;;;;;;;1.94;100.00;104161.16;5264003;28;20024;-72
2022/01/13 03:52:30;;;;;;;205.85;34.08;;;;;;;1.91;100.00;104155.06;5263580;28;20077;-72
2022/01/13 03:55:30;;;;;;;170.30;32.97;;;;;;;1.94;100.00;104149.72;5263305;28;20054;-72
2022/01/13 03:58:11;;;;;;;178.13;37.35;;;;;;;1.88;100.00;104153.34;5263302;28;20667;-72
2022/01/13 04:01:19;;;;;;;157.95;33.90;;;;;;;1.92;100.00;104149.75;5273575;28;20031;-72
2022/01/13 04:03:49;;;;;;;173.20;32.47;;;;;;;1.90;100.00;104148.00;5272720;28;20026;-72
2022/01/13 04:06:20;;;;;;;188.88;36.58;;;;;;;1.84;100.00;104148.13;5283783;28;20027;-71
2022/01/13 04:08:54;;;;;;;198.93;35.22;;;;;;;1.70;100.00;104143.97;5280710;28;20098;-72
2022/01/13 04:11:30;;;;;;;146.43;33.63;;;;;;;1.75;100.00;104149.19;5284809;27;20034;-72
2022/01/13 04:14:02;;;;;;;154.27;33.78;;;;;;;1.79;100.00;104146.44;5284714;28;20049;-72
2022/01/13 04:16:36;;;;;;;175.65;33.92;;;;;;;1.84;100.00;104151.66;5284039;28;20086;-72
2022/01/13 04:19:07;;;;;;;263.33;38.53;;;;;;;1.77;100.00;104152.69;5284736;28;20031;-72
2022/01/13 04:21:38;;;;;;;226.95;36.45;;;;;;;1.69;100.00;104152.81;5275888;28;20058;-72
2022/01/13 04:24:11;;;;;;;254.68;39.40;;;;;;;1.58;100.00;104156.56;5278953;28;20161;-72
2022/01/13 04:26:44;;;;;;;248.77;36.67;;;;;;;1.60;100.00;104154.75;5274346;28;20058;-72
2022/01/13 04:31:48;;;;;;;297.88;37.10;;;;;;;1.42;100.00;104150.66;5279327;28;20372;-72
2022/01/13 04:34:19;;;;;;;335.00;40.28;;;;;;;1.49;100.00;104154.94;5288249;28;20059;-72
2022/01/13 04:36:50;;;;;;;389.60;41.90;;;;;;;1.49;100.00;104152.28;5288453;28;20019;-72
2022/01/13 04:39:21;;;;;;;396.27;41.60;;;;;;;1.49;100.00;104162.88;5288331;28;20030;-72
2022/01/13 04:41:53;;;;;;;321.25;37.15;;;;;;;1.43;100.00;104152.41;5275891;28;20419;-72
2022/01/13 04:44:25;;;;;;;423.95;43.00;;;;;;;1.46;100.00;104165.59;5288050;28;20028;-72
2022/01/13 04:46:56;;;;;;;299.02;36.40;;;;;;;1.46;100.00;104158.53;5285279;28;20024;-72
2022/01/13 04:49:26;;;;;;;457.52;45.00;;;;;;;1.49;100.00;104163.75;5267312;28;20515;-71
2022/01/13 04:51:57;;;;;;;343.08;40.55;;;;;;;1.50;100.00;104164.63;5266747;28;20488;-72
2022/01/13 04:54:27;;;;;;;323.77;36.42;;;;;;;1.43;100.00;104163.88;5266962;28;20032;-71
2022/01/13 04:59:47;;;;;;;467.60;41.92;;;;;;;1.41;100.00;104163.03;5279033;28;20028;-71
2022/01/13 05:02:17;;;;;;;301.98;34.88;;;;;;;1.42;100.00;104166.53;5278028;28;20027;-72
2022/01/13 05:04:48;;;;;;;342.45;37.08;;;;;;;1.31;100.00;104168.50;5266155;28;20034;-72
2022/01/13 05:07:18;;;;;;;337.20;37.97;;;;;;;1.29;100.00;104166.72;5274551;28;20023;-72
2022/01/13 05:09:49;;;;;;;349.10;36.65;;;;;;;1.18;100.00;104163.41;5287629;28;20028;-72
2022/01/13 05:12:25;;;;;;;327.13;35.47;;;;;;;1.15;100.00;104163.44;5287994;28;20445;-72
2022/01/13 05:15:01;;;;;;;309.15;38.10;;;;;;;1.19;100.00;104159.84;5280027;28;20115;-72
2022/01/13 05:20:26;;;;;;;442.08;42.25;;;;;;;1.12;100.00;104160.84;5275560;28;20059;-73
2022/01/13 05:22:57;;;;;;;442.40;44.20;;;;;;;1.11;100.00;104155.59;5266461;28;20027;-72
2022/01/13 05:25:28;;;;;;;190.65;30.27;;;;;;;1.18;100.00;104155.47;5279590;28;20027;-72
2022/01/13 05:27:58;;;;;;;261.10;33.63;;;;;;;1.23;100.00;104158.03;5266527;28;20031;-72
2022/01/13 05:30:29;;;;;;;327.45;37.05;;;;;;;1.16;100.00;104153.75;5266168;28;20123;-72
2022/01/13 05:32:59;;;;;;;458.48;42.80;;;;;;;1.03;100.00;104147.78;5275413;28;20023;-72
2022/01/13 05:35:30;;;;;;;555.17;46.30;;;;;;;0.98;100.00;104147.84;5286927;28;21038;-72
2022/01/13 05:38:02;;;;;;;475.67;41.42;;;;;;;0.97;100.00;104134.66;5276577;27;20016;-72
2022/01/13 05:40:34;;;;;;;300.10;33.08;;;;;;;1.03;100.00;104139.84;5269605;28;20088;-72
2022/01/13 05:43:05;;;;;;;322.83;36.80;;;;;;;0.98;100.00;104134.63;5287174;28;20068;-72
2022/01/13 05:45:36;;;;;;;325.42;35.50;;;;;;;0.93;100.00;104138.22;5267415;28;20431;-72
2022/01/13 05:48:08;;;;;;;440.02;40.70;;;;;;;0.90;100.00;104141.78;5265797;28;20520;-72
2022/01/13 05:50:38;;;;;;;419.08;40.90;;;;;;;0.87;100.00;104144.50;5279203;28;20367;-72
2022/01/13 05:53:09;;;;;;;446.67;42.03;;;;;;;0.91;100.00;104153.25;5265813;28;20028;-73
2022/01/13 05:55:39;;;;;;;488.52;42.92;;;;;;;0.83;100.00;104149.84;5265636;28;20016;-72
2022/01/13 05:58:10;;;;;;;382.23;37.13;;;;;;;0.84;100.00;104155.09;5281880;28;20023;-71
2022/01/13 06:00:41;;;;;;;444.88;38.42;;;;;;;0.84;100.00;104159.50;5273863;28;20259;-72
2022/01/13 06:03:11;;;;;;;535.42;45.28;;;;;;;0.86;100.00;104155.09;5279619;28;20155;-72
2022/01/13 06:05:42;;;;;;;469.20;41.42;;;;;;;0.82;100.00;104158.69;5265523;28;20465;-72
2022/01/13 06:08:12;;;;;;;483.30;46.55;;;;;;;0.82;100.00;104156.91;5276837;28;20020;-72
2022/01/13 06:10:45;;;;;;;423.13;41.58;;;;;;;0.79;100.00;104146.38;5273887;28;20477;-72
2022/01/13 06:13:16;;;;;;;273.25;30.67;;;;;;;0.82;100.00;104148.09;5265269;28;20016;-72
2022/01/13 06:15:46;;;;;;;237.10;28.25;;;;;;;0.86;100.00;104155.97;5279061;28;20031;-71
2022/01/13 06:18:17;;;;;;;187.18;26.70;;;;;;;0.75;100.00;104153.50;5286524;28;20507;-71
2022/01/13 06:20:47;;;;;;;424.77;36.97;;;;;;;0.71;100.00;104157.06;5284921;28;20046;-72
2022/01/13 06:23:18;;;;;;;239.65;29.05;;;;;;;0.69;100.00;104164.13;5265290;28;20034;-72
2022/01/13 06:25:48;;;;;;;392.13;37.40;;;;;;;0.78;100.00;104171.94;5264488;28;20134;-73
2022/01/13 06:28:19;;;;;;;475.63;42.50;;;;;;;0.68;100.00;104161.50;5275393;28;20532;-74
2022/01/13 06:30:49;;;;;;;208.18;27.75;;;;;;;0.66;100.00;104158.91;5281541;28;20051;-74
2022/01/13 06:33:20;;;;;;;270.85;32.35;;;;;;;0.71;100.00;104158.84;5265075;28;20028;-74
2022/01/13 06:35:51;;;;;;;329.02;33.60;;;;;;;0.70;100.00;104157.97;5264586;28;20047;-73
2022/01/13 06:38:23;;;;;;;552.05;49.35;;;;;;;0.73;100.00;104164.97;5264538;28;20024;-74
2022/01/13 06:40:54;;;;;;;230.15;30.63;;;;;;;0.78;100.00;104157.84;5278490;28;20030;-74
2022/01/13 06:43:24;;;;;;;244.18;34.53;;;;;;;0.84;100.00;104157.75;5279944;28;20023;-74
2022/01/13 06:45:55;;;;;;;318.92;41.90;;;;;;;0.83;100.00;104156.00;5276874;28;20430;-74
2022/01/13 06:48:26;;;;;;;246.88;32.92;;;;;;;0.90;100.00;104154.13;5278127;28;20024;-73
2022/01/13 06:50:56;;;;;;;201.48;31.08;;;;;;;0.88;100.00;104155.94;5272899;28;20016;-74
2022/01/13 06:53:27;;;;;;;421.33;37.78;;;;;;;0.85;100.00;104146.25;5271413;28;20019;-73
2022/01/13 06:55:57;;;;;;;555.38;46.15;;;;;;;0.76;100.00;104149.06;5285361;28;20031;-73
2022/01/13 06:58:28;;;;;;;225.27;27.83;;;;;;;0.79;100.00;104146.38;5266864;28;20035;-74
2022/01/13 07:00:58;;;;;;;510.23;42.17;;;;;;;0.82;100.00;104134.88;5277018;28;20104;-74
2022/01/13 07:03:29;;;;;;;503.33;44.38;;;;;;;0.78;100.00;104137.56;5272018;28;20104;-73
2022/01/13 07:05:59;;;;;;;439.65;39.05;;;;;;;0.74;100.00;104138.50;5271905;28;20016;-73
2022/01/13 07:08:30;;;;;;;464.67;41.47;;;;;;;0.68;100.00;104137.72;5281933;28;20047;-72
2022/01/13 07:11:03;;;;;;;234.35;31.58;;;;;;;0.73;100.00;104133.25;5283683;28;20023;-73
2022/01/13 07:13:34;;;;;;;579.38;47.70;;;;;;;0.70;100.00;104135.91;5273175;28;20361;-74
2022/01/13 07:16:05;;;;;;;197.90;27.52;;;;;;;0.71;100.00;104141.22;5281570;28;20089;-74
2022/01/13 07:18:38;;;;;;;751.10;55.55;;;;;;;0.64;100.00;104147.47;5264058;28;20077;-74
2022/01/13 07:21:11;;;;;;;233.32;28.80;;;;;;;0.67;100.00;104150.06;5264427;28;20028;-73
2022/01/13 07:23:42;;;;;;;436.40;38.85;;;;;;;0.65;100.00;104149.22;5264106;28;20032;-74
2022/01/13 07:26:13;;;;;;;276.02;37.90;;;;;;;0.73;100.00;104149.09;5283818;28;20089;-75
2022/01/13 07:28:43;;;;;;;239.43;29.17;;;;;;;0.73;100.00;104149.97;5284977;28;20026;-75
2022/01/13 07:31:15;;;;;;;549.25;39.17;;;;;;;0.66;100.00;104145.69;5285031;28;20399;-74
2022/01/13 07:33:45;;;;;;;222.32;25.70;;;;;;;0.63;100.00;104148.34;5269112;28;20436;-74
2022/01/13 07:36:16;;;;;;;385.65;36.20;;;;;;;0.56;100.00;104149.34;5272828;28;20023;-74
2022/01/13 07:38:46;;;;;;;244.70;26.67;;;;;;;0.62;100.00;104145.75;5270941;28;20031;-73
2022/01/13 07:41:17;;;;;;;203.18;23.63;;;;;;;0.59;100.00;104153.69;5284959;28;20434;-74
2022/01/13 07:43:53;;;;;;;264.73;27.13;;;;;;;0.64;100.00;104159.78;5266342;28;20035;-74
2022/01/13 07:46:25;;;;;;;250.20;25.23;;;;;;;0.60;100.00;104160.72;5276426;28;20530;-74
2022/01/13 07:48:55;;;;;;;295.15;28.35;;;;;;;0.60;100.00;104158.09;5285062;28;20365;-74
2022/01/13 07:51:26;;;;;;;572.97;42.95;;;;;;;0.55;100.00;104160.78;5283842;28;20023;-74
2022/01/13 07:53:57;;;;;;;417.27;37.97;;;;;;;0.35;100.00;104174.28;5263767;28;20027;-73
2022/01/13 07:56:28;;;;;;;257.33;26.65;;;;;;;0.43;100.00;104169.75;5263380;28;20023;-74
2022/01/13 07:58:58;;;;;;;192.85;25.33;;;;;;;0.47;100.00;104182.03;5272727;28;20412;-72
2022/01/13 08:01:29;;;;;;;515.00;38.25;;;;;;;0.46;100.00;104176.78;5278216;28;20031;-74
2022/01/13 08:04:00;;;;;;;487.60;39.05;;;;;;;0.38;100.00;104168.94;5262961;28;20602;-73
2022/01/13 08:06:30;;;;;;;500.83;39.90;;;;;;;0.41;100.00;104168.91;5279878;28;20051;-73
2022/01/13 08:09:01;;;;;;;482.60;40.50;;;;;;;0.47;100.00;104162.69;5281596;28;20043;-73
2022/01/13 08:11:31;;;;;;;562.58;42.53;;;;;;;0.38;100.00;104173.34;5272515;28;20024;-73
2022/01/13 08:14:02;;;;;;;322.05;55.80;;;;;;;0.49;100.00;104166.16;5274007;28;20020;-73
2022/01/13 08:16:35;;;;;;;282.95;35.45;;;;;;;0.60;100.00;104168.66;5280437;28;20032;-73
2022/01/13 08:21:54;;;;;;;516.22;43.20;;;;;;;0.67;100.00;104171.22;5272477;28;20036;-73
2022/01/13 08:24:25;;;;;;;443.35;38.85;;;;;;;0.66;100.00;104158.91;5262511;28;20022;-73
2022/01/13 08:26:55;;;;;;;502.48;40.67;;;;;;;0.62;100.00;104157.19;5276503;28;20020;-73
2022/01/13 08:29:26;;;;;;;448.65;35.88;;;;;;;0.69;100.00;104161.47;5270508;28;20389;-73
2022/01/13 08:31:56;;;;;;;561.50;43.85;;;;;;;0.71;100.00;104162.34;5268721;28;20036;-73
2022/01/13 08:34:27;;;;;;;432.52;39.95;;;;;;;0.73;100.00;104157.91;5266135;28;20024;-73
2022/01/13 08:36:58;;;;;;;480.88;39.05;;;;;;;0.74;100.00;104159.66;5270560;28;20024;-73
2022/01/13 08:39:28;;;;;;;474.70;38.95;;;;;;;0.70;100.00;104155.31;5269529;28;20110;-73
2022/01/13 08:41:58;;;;;;;496.17;41.85;;;;;;;0.74;100.00;104157.00;5272427;28;20080;-73
2022/01/13 08:44:29;;;;;;;530.88;42.80;;;;;;;0.75;100.00;104164.06;5271819;28;20242;-73
2022/01/13 08:46:59;;;;;;;607.72;48.55;;;;;;;0.75;100.00;104164.06;5271398;28;20484;-73
2022/01/13 08:49:31;;;;;;;596.85;52.05;;;;;;;0.72;100.00;104161.44;5271422;28;20372;-73
2022/01/13 08:52:02;;;;;;;577.80;44.25;;;;;;;0.75;100.00;104163.16;5268375;28;20035;-73
2022/01/13 08:54:32;;;;;;;375.15;34.38;;;;;;;0.80;100.00;104165.72;5274885;28;20020;-73
2022/01/13 08:57:06;;;;;;;565.13;50.45;;;;;;;0.67;100.00;104175.63;5268701;28;20107;-73
2022/01/13 08:59:36;;;;;;;574.83;47.15;;;;;;;0.63;100.00;104172.13;5269724;28;20050;-73
2022/01/13 09:02:07;;;;;;;605.03;49.45;;;;;;;0.69;100.00;104177.34;5267841;28;20024;-73
2022/01/13 09:04:38;;;;;;;608.85;46.97;;;;;;;0.63;100.00;104177.44;5272600;28;20047;-73
2022/01/13 09:07:08;;;;;;;548.85;47.58;;;;;;;0.68;100.00;104177.38;5271303;28;20023;-73
2022/01/13 09:09:39;;;;;;;457.13;39.20;;;;;;;0.66;100.00;104180.03;5266320;28;20051;-73
2022/01/13 09:12:10;;;;;;;489.58;42.05;;;;;;;0.83;100.00;104177.16;5268581;28;20031;-73
2022/01/13 09:14:42;;;;;;;518.53;40.90;;;;;;;0.70;100.00;104172.91;5266562;28;20245;-73
2022/01/13 09:17:20;;;;;;;536.03;40.70;;;;;;;0.73;100.00;104176.41;5267000;28;20032;-73
2022/01/13 09:19:51;;;;;;;588.70;43.05;;;;;;;0.87;100.00;104180.63;5268877;28;20111;-73
2022/01/13 09:22:22;;;;;;;615.00;48.78;;;;;;;0.95;100.00;104191.94;5269855;28;20103;-73
2022/01/13 09:24:52;;;;;;;761.45;58.20;;;;;;;0.93;100.00;104199.03;5269067;28;20042;-73
2022/01/13 09:27:23;;;;;;;252.38;28.70;;;;;;;1.02;100.00;104204.19;5274159;27;20019;-73
2022/01/13 09:29:53;;;;;;;580.47;40.05;;;;;;;0.98;100.00;104213.94;5278214;28;20046;-73
2022/01/13 09:32:24;;;;;;;523.13;39.72;;;;;;;0.95;100.00;104213.09;5271450;28;20477;-73
2022/01/13 09:34:54;;;;;;;327.67;31.10;;;;;;;1.00;100.00;104211.25;5274277;28;20107;-73
2022/01/13 09:37:25;;;;;;;400.38;38.20;;;;;;;0.98;100.00;104210.41;5279556;28;20022;-73
2022/01/13 09:39:56;;;;;;;392.75;35.35;;;;;;;1.00;100.00;104211.25;5268836;28;20043;-73
2022/01/13 09:42:27;;;;;;;514.50;43.53;;;;;;;1.09;100.00;104212.91;5273518;28;20140;-73
2022/01/13 09:45:00;;;;;;;513.55;43.08;;;;;;;1.04;100.00;104212.97;5280461;28;20023;-73
2022/01/13 09:47:31;;;;;;;530.17;42.72;;;;;;;1.10;100.00;104207.59;5276338;28;20066;-73
2022/01/13 09:50:09;;;;;;;466.77;38.33;;;;;;;1.16;100.00;104218.09;5276668;28;20160;-74
2022/01/13 09:52:41;;;;;;;476.00;38.20;;;;;;;1.00;100.00;104209.53;5276184;28;20020;-73
2022/01/13 09:55:15;;;;;;;388.63;34.13;;;;;;;1.07;100.00;104214.72;5275612;28;20046;-73
2022/01/13 09:57:49;;;;;;;438.20;40.63;;;;;;;1.03;100.00;104209.47;5271426;28;20019;-73
2022/01/13 10:00:24;;;;;;;502.05;42.15;;;;;;;1.12;100.00;104208.47;5271283;28;20038;-74
2022/01/13 10:02:55;;;;;;;332.95;35.63;;;;;;;1.20;100.00;104210.97;5279154;28;20046;-73
2022/01/13 10:05:26;;;;;;;416.63;39.00;;;;;;;1.17;100.00;104216.31;5270942;27;20532;-73
2022/01/13 10:07:56;;;;;;;276.80;27.08;;;;;;;1.17;100.00;104205.75;5280756;28;20058;-73
2022/01/13 10:10:30;;;;;;;289.75;28.35;;;;;;;1.22;100.00;104204.78;5271368;28;20035;-73
2022/01/13 10:13:04;;;;;;;321.25;32.25;;;;;;;1.36;100.00;104198.41;5274688;28;20031;-73
2022/01/13 10:18:46;;;;;;;409.52;36.55;;;;;;;1.56;100.00;104201.59;5277170;28;20047;-73
2022/01/13 10:21:18;;;;;;;187.65;25.70;;;;;;;1.63;100.00;104202.34;5277033;28;20032;-73
2022/01/13 10:24:11;;;;;;;179.75;28.52;;;;;;;1.74;100.00;104203.91;5271946;28;20023;-73
2022/01/13 10:26:58;;;;;;;386.17;33.92;;;;;;;1.62;100.00;104204.13;5269689;28;20035;-73
2022/01/13 10:29:50;;;;;;;294.00;28.80;;;;;;;1.58;100.00;104207.72;5275238;28;20024;-73
2022/01/13 10:32:22;;;;;;;335.23;32.55;;;;;;;1.31;100.00;104201.13;5268296;28;20024;-73
2022/01/13 10:35:14;;;;;;;445.25;38.20;;;;;;;1.31;100.00;104206.41;5270879;28;20032;-73
2022/01/13 10:38:02;;;;;;;300.05;31.45;;;;;;;1.47;100.00;104214.97;5271934;28;20055;-73
2022/01/13 10:40:39;;;;;;;417.30;34.45;;;;;;;1.62;100.00;104213.84;5272640;28;20035;-73
2022/01/13 10:43:10;;;;;;;424.35;35.03;;;;;;;1.55;100.00;104205.09;5275220;28;20417;-73
2022/01/13 10:45:59;;;;;;;301.10;34.05;;;;;;;1.68;100.00;104201.38;5267889;28;20028;-73
2022/01/13 10:48:32;;;;;;;376.40;32.70;;;;;;;1.57;100.00;104207.75;5271658;28;20028;-73
2022/01/13 10:51:07;;;;;;;343.52;31.67;;;;;;;1.49;100.00;104207.88;5270035;28;20489;-73
2022/01/13 10:53:41;;;;;;;287.23;29.95;;;;;;;1.47;100.00;104202.59;5275045;28;20429;-73
2022/01/13 10:56:17;;;;;;;339.58;30.95;;;;;;;1.47;100.00;104199.09;5270802;27;20503;-73
2022/01/13 10:58:50;;;;;;;280.33;31.38;;;;;;;1.44;100.00;104200.00;5273965;28;20023;-73
2022/01/13 11:01:21;;;;;;;250.48;27.98;;;;;;;1.40;100.00;104194.78;5265977;28;20365;-73
2022/01/13 11:03:54;;;;;;;304.45;31.58;;;;;;;1.36;100.00;104193.13;5274396;28;20027;-73
2022/01/13 11:06:28;;;;;;;293.17;30.55;;;;;;;1.33;100.00;104194.03;5280860;28;20070;-73
2022/01/13 11:09:00;;;;;;;274.45;30.48;;;;;;;1.22;100.00;104183.63;5270455;27;20032;-73
2022/01/13 11:11:34;;;;;;;233.70;28.08;;;;;;;1.35;100.00;104189.56;5274162;28;20113;-73
2022/01/13 11:16:53;;;;;;;164.02;26.55;;;;;;;1.47;100.00;104192.03;5270650;28;20429;-73
2022/01/13 11:19:24;;;;;;;178.73;28.10;;;;;;;1.58;100.00;104189.19;5275851;28;20026;-73
2022/01/13 11:21:55;;;;;;;294.23;34.80;;;;;;;1.50;100.00;104180.50;5275067;28;20038;-73
2022/01/13 11:24:26;;;;;;;290.85;30.85;;;;;;;1.64;100.00;104182.91;5281436;28;20486;-73
2022/01/13 11:26:57;;;;;;;434.08;39.53;;;;;;;1.66;100.00;104171.41;5276398;28;20119;-73
2022/01/13 11:29:28;;;;;;;280.00;31.48;;;;;;;1.54;100.00;104172.47;5274283;28;20024;-73
2022/01/13 11:31:59;;;;;;;295.63;33.65;;;;;;;1.52;100.00;104162.84;5267843;28;20028;-73
2022/01/13 11:34:30;;;;;;;222.48;28.60;;;;;;;1.54;100.00;104161.03;5271500;28;20088;-73
2022/01/13 11:37:01;;;;;;;270.70;30.88;;;;;;;1.54;100.00;104153.97;5275345;27;20073;-73
2022/01/13 11:39:47;;;;;;;198.73;30.00;;;;;;;1.74;100.00;104156.25;5269161;27;20027;-73
2022/01/13 11:42:18;;;;;;;411.27;36.63;;;;;;;1.73;100.00;104161.59;5269467;28;20035;-73
2022/01/13 11:45:26;;;;;;;269.92;30.73;;;;;;;1.82;100.00;104156.13;5266679;28;20031;-73
2022/01/13 11:48:17;;;;;;;318.48;32.28;;;;;;;1.78;100.00;104154.44;5265270;28;20027;-73
2022/01/13 11:50:52;;;;;;;479.33;43.17;;;;;;;1.76;100.00;104143.00;5267097;28;20031;-73
2022/01/13 11:53:23;;;;;;;;;;;;;;;1.90;100.00;104143.59;5264807;28;20527;-73
2022/01/13 11:55:59;;;;;;;367.23;36.65;;;;;;;1.92;100.00;104144.44;5267115;28;19935;-73
2022/01/13 11:58:40;;;;;;;297.20;32.58;;;;;;;1.87;100.00;104142.81;5274786;28;20051;-73
2022/01/13 12:01:25;;;;;;;441.08;40.25;;;;;;;1.93;100.00;104148.84;5263899;27;20052;-73
2022/01/13 12:03:59;;;;;;;272.50;32.03;;;;;;;1.98;100.00;104140.81;5273144;28;20047;-73
2022/01/13 12:06:36;;;;;;;296.05;31.35;;;;;;;1.97;100.00;104144.38;5272956;28;20016;-73
2022/01/13 12:09:25;;;;;;;481.30;41.78;;;;;;;1.86;100.00;104135.72;5276110;28;20031;-73